Time;durP1;ratioP1;P1;durP2;ratioP2;P2;SDS_P1;SDS_P2;PMS_P1;PMS_P2;Temp;Humidity;BMP_temperature;BMP_pressure;BME280_temperature;BME280_humidity;BME280_pressure;Samples;Min_cycle;Max_cycle;Signal;HPM_P1;HPM_P2
2023/09/19 00:00:57;;;;;;;0.50;0.50;;;19.40;99.90;;;;;;4985292;28;20517;-88
2023/09/19 00:03:28;;;;;;;0.60;0.60;;;19.30;99.90;;;;;;5000332;28;20451;-82
2023/09/19 00:05:57;;;;;;;0.70;0.70;;;19.40;99.90;;;;;;4988065;28;20833;-87
2023/09/19 00:08:25;;;;;;;2.17;2.00;;;19.30;99.90;;;;;;5055340;23;20445;-87
2023/09/19 00:10:54;;;;;;;0.57;0.57;;;19.30;99.90;;;;;;5199226;22;20531;-81
2023/09/19 00:13:23;;;;;;;0.50;0.50;;;19.30;99.90;;;;;;5027179;28;20454;-84
2023/09/19 00:15:50;;;;;;;0.60;0.60;;;19.30;99.90;;;;;;5136468;23;20502;-87
2023/09/19 00:18:21;;;;;;;0.50;0.50;;;19.30;99.90;;;;;;5183346;23;20431;-88
2023/09/19 00:20:51;;;;;;;0.60;0.60;;;19.20;99.90;;;;;;5024848;28;20464;-89
2023/09/19 00:23:20;;;;;;;0.50;0.50;;;19.10;99.90;;;;;;5282684;22;20512;-89
2023/09/19 00:28:22;;;;;;;0.87;0.87;;;19.10;99.90;;;;;;5289488;22;20438;-88
2023/09/19 00:30:50;;;;;;;0.50;0.50;;;19.20;99.90;;;;;;5043996;28;20426;-87
2023/09/19 00:35:56;;;;;;;1.07;1.07;;;19.10;99.90;;;;;;5024053;28;20466;-87
2023/09/19 00:46:22;;;;;;;1.07;1.07;;;19.10;99.90;;;;;;5139886;23;20572;-88
2023/09/19 00:51:31;;;;;;;0.50;0.50;;;19.10;99.90;;;;;;5607634;23;20457;-87
2023/09/19 00:53:59;;;;;;;0.50;0.50;;;19.10;99.90;;;;;;5018295;28;21053;-86
2023/09/19 01:07:09;;;;;;;0.50;0.50;;;18.90;99.90;;;;;;5802875;23;20458;-88
2023/09/19 01:09:36;;;;;;;1.07;1.00;;;18.90;99.90;;;;;;5413164;23;20485;-88
2023/09/19 01:12:06;;;;;;;0.50;0.50;;;18.80;99.90;;;;;;5436350;23;20508;-89
2023/09/19 01:20:30;;;;;;;0.50;0.50;;;19.00;99.90;;;;;;5370405;22;20502;-88
2023/09/19 01:30:50;;;;;;;0.50;0.50;;;18.80;99.90;;;;;;5060743;28;20488;-88
2023/09/19 01:33:16;;;;;;;0.50;0.50;;;18.80;99.90;;;;;;5577030;22;20558;-86
2023/09/19 01:35:44;;;;;;;0.40;0.40;;;18.70;99.90;;;;;;5168942;23;20489;-90
2023/09/19 01:43:43;;;;;;;0.77;0.77;;;18.50;99.90;;;;;;5223708;22;20480;-92
2023/09/19 02:05:01;;;;;;;0.40;0.40;;;18.20;99.90;;;;;;5767855;22;20455;-91
2023/09/19 02:12:53;;;;;;;;;;;;;;;;;;;;;
2023/09/19 02:15:34;;;;;;;0.90;0.90;;;18.20;99.90;;;;;;5079931;28;20541;-92
2023/09/19 02:18:22;;;;;;;6.23;1.03;;;18.20;99.90;;;;;;5058025;28;20522;-89
2023/09/19 02:23:54;;;;;;;0.83;0.83;;;18.10;99.90;;;;;;5666424;22;20416;-88
2023/09/19 02:26:24;;;;;;;0.73;0.73;;;18.20;99.90;;;;;;5043747;28;20485;-87
2023/09/19 02:28:53;;;;;;;0.40;0.40;;;18.10;99.90;;;;;;5051055;28;20443;-89
2023/09/19 02:31:24;;;;;;;0.70;0.70;;;18.00;99.90;;;;;;5044592;28;20448;-89
2023/09/19 02:33:52;;;;;;;1.07;1.03;;;18.00;99.90;;;;;;5038773;28;20441;-88
2023/09/19 02:39:23;;;;;;;0.40;0.40;;;18.00;99.90;;;;;;5035394;28;20632;-86
2023/09/19 02:41:55;;;;;;;1.23;1.13;;;18.00;99.90;;;;;;5027340;28;20451;-87
2023/09/19 02:48:17;;;;;;;0.57;0.57;;;18.00;99.90;;;;;;5600419;22;20423;-88
2023/09/19 02:56:24;;;;;;;0.50;0.50;;;17.90;99.90;;;;;;5536665;23;20473;-89
2023/09/19 03:29:06;;;;;;;0.73;0.73;;;17.80;99.90;;;;;;5451543;23;20488;-91
2023/09/19 03:31:37;;;;;;;0.60;0.60;;;17.80;99.90;;;;;;5054809;28;20445;-91
2023/09/19 03:34:06;;;;;;;0.50;0.50;;;17.80;99.90;;;;;;5040684;28;20482;-89
2023/09/19 03:36:42;;;;;;;1.67;1.57;;;17.80;99.90;;;;;;5045038;28;20430;-90
2023/09/19 03:39:16;;;;;;;0.97;0.97;;;17.70;99.90;;;;;;5050126;28;20517;-91
2023/09/19 04:00:39;;;;;;;0.43;0.43;;;17.70;99.90;;;;;;5701193;23;20528;-93
2023/09/19 04:14:12;;;;;;;0.80;0.80;;;17.60;99.90;;;;;;5341819;23;20452;-89
2023/09/19 04:16:57;;;;;;;0.40;0.40;;;17.60;99.90;;;;;;5013195;28;20442;-90
2023/09/19 04:22:13;;;;;;;0.40;0.40;;;17.60;99.90;;;;;;5966459;23;20566;-87
2023/09/19 04:24:43;;;;;;;0.40;0.40;;;17.50;99.90;;;;;;5059581;28;20560;-90
2023/09/19 04:27:16;;;;;;;0.40;0.40;;;17.70;99.90;;;;;;5062411;28;21183;-91
2023/09/19 04:29:59;;;;;;;1.10;1.10;;;17.60;99.90;;;;;;5051763;28;20469;-92
2023/09/19 04:32:51;;;;;;;0.40;0.40;;;17.60;99.90;;;;;;5439898;23;20757;-92
2023/09/19 04:35:35;;;;;;;7.50;2.10;;;17.40;99.90;;;;;;5271535;23;20517;-91
2023/09/19 04:49:19;;;;;;;0.80;0.80;;;17.40;99.90;;;;;;5581068;23;20475;-89
2023/09/19 04:52:02;;;;;;;0.40;0.40;;;17.40;99.90;;;;;;5055812;28;20456;-92
2023/09/19 04:54:30;;;;;;;0.93;0.93;;;17.40;99.90;;;;;;5047726;28;20508;-90
2023/09/19 04:57:05;;;;;;;1.63;1.53;;;17.50;99.90;;;;;;5163365;23;20489;-89
2023/09/19 05:02:22;;;;;;;;;;;;;;;;;;;;;
2023/09/19 05:32:00;;;;;;;2.53;2.30;;;17.80;99.90;;;;;;5020359;28;20863;-86
2023/09/19 05:34:32;;;;;;;0.60;0.60;;;17.90;99.90;;;;;;5002753;28;20703;-86
2023/09/19 05:37:04;;;;;;;0.50;0.50;;;18.00;99.90;;;;;;5015352;28;20511;-86
2023/09/19 05:39:32;;;;;;;0.47;0.47;;;18.20;99.90;;;;;;5003004;28;20462;-87
2023/09/19 05:42:04;;;;;;;0.40;0.40;;;18.00;99.90;;;;;;5003440;28;20416;-87
2023/09/19 05:44:38;;;;;;;0.50;0.50;;;18.10;99.90;;;;;;5019340;28;20463;-87
2023/09/19 05:47:10;;;;;;;0.67;0.67;;;18.10;99.90;;;;;;4982150;28;20451;-88
2023/09/19 05:49:45;;;;;;;0.50;0.50;;;18.10;99.90;;;;;;4985458;28;20463;-87
2023/09/19 05:52:17;;;;;;;1.60;1.50;;;18.30;99.90;;;;;;5011044;28;20443;-90
2023/09/19 05:54:47;;;;;;;1.33;1.23;;;18.30;99.90;;;;;;5012959;28;20518;-88
2023/09/19 05:57:18;;;;;;;1.30;1.20;;;18.30;99.90;;;;;;5006882;28;20511;-87
2023/09/19 05:59:49;;;;;;;0.50;0.50;;;18.40;99.90;;;;;;5006325;28;20421;-90
2023/09/19 06:02:22;;;;;;;0.50;0.50;;;18.70;99.90;;;;;;5010896;28;20480;-90
2023/09/19 06:04:52;;;;;;;1.33;0.90;;;18.80;99.90;;;;;;5000861;28;20475;-88
2023/09/19 06:07:22;;;;;;;0.50;0.50;;;18.90;99.90;;;;;;4994302;28;20494;-83
2023/09/19 06:09:56;;;;;;;1.20;1.13;;;19.10;99.90;;;;;;5021803;28;20783;-88
2023/09/19 06:12:28;;;;;;;0.97;0.97;;;19.20;99.90;;;;;;5010851;28;20438;-90
2023/09/19 06:14:59;;;;;;;0.93;0.93;;;19.40;99.90;;;;;;5011617;28;20435;-92
2023/09/19 06:17:28;;;;;;;0.97;0.97;;;19.50;99.90;;;;;;5011906;28;20418;-87
2023/09/19 06:19:55;;;;;;;0.93;0.93;;;19.40;99.90;;;;;;5014186;28;20454;-90
2023/09/19 06:22:23;;;;;;;3.13;0.87;;;19.40;99.90;;;;;;5030981;28;20421;-91
2023/09/19 06:24:53;;;;;;;1.00;1.00;;;19.40;99.90;;;;;;5019316;28;20594;-90
2023/09/19 06:27:21;;;;;;;1.73;1.63;;;19.30;99.90;;;;;;5006431;28;20471;-91
2023/09/19 06:29:51;;;;;;;0.70;0.70;;;19.30;99.90;;;;;;5007413;28;20439;-88
2023/09/19 06:32:21;;;;;;;11.47;1.57;;;19.20;99.90;;;;;;4998479;28;20450;-85
2023/09/19 06:34:54;;;;;;;0.50;0.50;;;19.10;99.90;;;;;;5011278;28;20413;-87
2023/09/19 06:37:22;;;;;;;0.70;0.70;;;19.10;99.90;;;;;;4994228;28;20451;-86
2023/09/19 06:39:49;;;;;;;0.70;0.70;;;19.20;99.90;;;;;;5025165;28;20474;-85
2023/09/19 06:42:17;;;;;;;0.50;0.50;;;19.20;99.90;;;;;;5006891;28;20415;-85
2023/09/19 06:44:48;;;;;;;1.67;1.00;;;19.20;99.90;;;;;;5026770;28;20679;-87
2023/09/19 06:47:17;;;;;;;0.80;0.80;;;19.20;99.90;;;;;;5026589;28;20434;-92
2023/09/19 06:49:45;;;;;;;0.50;0.50;;;19.30;99.90;;;;;;5010616;28;20451;-85
2023/09/19 06:52:12;;;;;;;0.50;0.50;;;19.30;99.90;;;;;;5015275;28;20454;-88
2023/09/19 06:54:44;;;;;;;0.50;0.50;;;19.50;99.90;;;;;;5014070;28;20421;-90
2023/09/19 06:57:16;;;;;;;0.80;0.80;;;19.70;99.90;;;;;;5020454;28;20444;-91
2023/09/19 06:59:46;;;;;;;0.60;0.60;;;20.00;99.90;;;;;;5022509;28;20798;-85
2023/09/19 07:02:13;;;;;;;0.50;0.50;;;20.10;99.90;;;;;;5013912;28;20474;-83
2023/09/19 07:04:40;;;;;;;0.90;0.90;;;20.20;99.90;;;;;;5018938;28;20475;-83
2023/09/19 07:07:08;;;;;;;1.30;1.20;;;20.40;99.90;;;;;;5029401;28;20422;-85
2023/09/19 07:09:36;;;;;;;2.67;2.50;;;20.60;99.90;;;;;;5029530;28;20414;-86
2023/09/19 07:12:04;;;;;;;1.77;1.67;;;20.70;99.90;;;;;;5020038;28;20514;-85
2023/09/19 07:14:32;;;;;;;0.70;0.70;;;20.80;99.90;;;;;;5005090;28;20477;-84
2023/09/19 07:17:03;;;;;;;2.40;1.07;;;20.90;99.90;;;;;;5018393;28;20772;-82
2023/09/19 07:19:31;;;;;;;0.60;0.60;;;21.20;99.90;;;;;;5026703;28;20432;-83
2023/09/19 07:21:59;;;;;;;0.70;0.70;;;21.80;99.90;;;;;;5026407;28;20422;-88
2023/09/19 07:24:28;;;;;;;0.80;0.80;;;22.60;99.90;;;;;;5005278;28;20697;-84
2023/09/19 07:26:55;;;;;;;1.10;1.10;;;22.90;99.90;;;;;;5001690;28;20465;-87
2023/09/19 07:29:26;;;;;;;1.20;1.20;;;22.70;99.90;;;;;;5001759;28;20855;-80
2023/09/19 07:31:53;;;;;;;0.70;0.70;;;22.50;99.90;;;;;;5018550;28;20769;-80
2023/09/19 07:34:22;;;;;;;1.43;1.10;;;22.40;99.90;;;;;;5022951;28;20473;-88
2023/09/19 07:36:50;;;;;;;1.10;1.10;;;22.30;99.90;;;;;;5022769;28;20422;-84
2023/09/19 07:39:20;;;;;;;1.53;1.33;;;22.20;99.90;;;;;;5022716;28;20453;-83
2023/09/19 07:41:49;;;;;;;0.80;0.80;;;22.00;99.90;;;;;;5014442;28;20489;-86
2023/09/19 07:44:19;;;;;;;1.00;1.00;;;22.20;99.90;;;;;;5023645;28;20445;-82
2023/09/19 07:46:50;;;;;;;0.80;0.80;;;22.70;99.90;;;;;;4994093;28;20422;-86
2023/09/19 07:49:18;;;;;;;0.70;0.70;;;22.90;99.90;;;;;;5005285;28;20717;-84
2023/09/19 07:51:46;;;;;;;1.67;1.57;;;22.80;99.90;;;;;;5016843;28;20422;-81
2023/09/19 07:54:16;;;;;;;1.63;1.53;;;22.50;99.90;;;;;;5013202;28;20461;-85
2023/09/19 07:56:45;;;;;;;0.60;0.60;;;22.00;99.90;;;;;;5017990;28;20739;-84
2023/09/19 07:59:13;;;;;;;0.73;0.73;;;21.30;99.90;;;;;;5003509;28;20418;-84
2023/09/19 08:01:40;;;;;;;0.60;0.60;;;21.20;99.90;;;;;;5022991;28;20691;-83
2023/09/19 08:04:08;;;;;;;0.60;0.60;;;21.10;99.90;;;;;;5004399;28;20480;-81
2023/09/19 08:06:39;;;;;;;0.80;0.80;;;20.90;99.90;;;;;;5016116;28;20422;-84
2023/09/19 08:09:09;;;;;;;0.60;0.60;;;21.10;99.90;;;;;;5022620;28;20455;-86
2023/09/19 08:11:36;;;;;;;0.60;0.60;;;21.10;99.90;;;;;;5020637;28;20438;-83
2023/09/19 08:14:08;;;;;;;0.60;0.60;;;21.30;99.90;;;;;;5019404;28;20422;-86
2023/09/19 08:16:35;;;;;;;0.60;0.60;;;21.30;99.90;;;;;;5004507;28;20436;-81
2023/09/19 08:19:10;;;;;;;0.60;0.60;;;21.30;99.90;;;;;;5005031;28;20429;-85
2023/09/19 08:21:37;;;;;;;0.60;0.60;;;21.20;99.90;;;;;;5020302;28;20442;-88
2023/09/19 08:24:09;;;;;;;1.37;1.23;;;21.30;99.90;;;;;;5006973;28;20582;-84
2023/09/19 08:26:38;;;;;;;0.70;0.70;;;21.40;99.90;;;;;;5018546;28;20661;-87
2023/09/19 08:29:11;;;;;;;0.60;0.60;;;21.50;99.90;;;;;;5020485;28;20565;-85
2023/09/19 08:31:39;;;;;;;1.00;1.00;;;21.40;99.90;;;;;;5011876;28;20426;-84
2023/09/19 08:34:11;;;;;;;1.07;1.03;;;21.60;99.90;;;;;;5001866;28;20550;-82
2023/09/19 08:36:44;;;;;;;1.00;1.00;;;21.60;99.90;;;;;;5019169;28;20459;-80
2023/09/19 08:39:11;;;;;;;2.80;2.60;;;21.60;99.90;;;;;;5020319;28;20429;-84
2023/09/19 08:41:50;;;;;;;;;;;;;;;;;;;;;
2023/09/19 08:44:20;;;;;;;0.73;0.73;;;21.80;99.90;;;;;;5019375;28;20474;-85
2023/09/19 08:46:49;;;;;;;0.60;0.60;;;21.80;99.90;;;;;;4996996;28;20542;-81
2023/09/19 08:49:29;;;;;;;2.93;2.73;;;21.80;99.90;;;;;;5022532;28;20467;-84
2023/09/19 08:52:10;;;;;;;0.73;0.73;;;21.90;99.90;;;;;;5005006;28;20421;-86
2023/09/19 08:54:41;;;;;;;0.70;0.70;;;21.90;99.90;;;;;;5026932;28;20960;-80
2023/09/19 08:57:10;;;;;;;0.90;0.90;;;21.90;99.90;;;;;;5005320;28;20425;-84
2023/09/19 08:59:43;;;;;;;0.60;0.60;;;21.80;99.90;;;;;;5005343;28;20425;-80
2023/09/19 09:02:15;;;;;;;0.70;0.70;;;21.60;99.90;;;;;;5021429;28;20505;-87
2023/09/19 09:04:47;;;;;;;1.40;1.30;;;21.40;99.90;;;;;;5020677;28;20479;-84
2023/09/19 09:07:16;;;;;;;0.90;0.90;;;21.30;99.90;;;;;;4992224;28;20418;-84
2023/09/19 09:09:48;;;;;;;1.40;1.30;;;21.20;99.90;;;;;;5002396;28;20424;-84
2023/09/19 09:12:15;;;;;;;1.30;1.20;;;21.00;99.90;;;;;;5019910;28;20425;-84
2023/09/19 09:14:52;;;;;;;0.77;0.77;;;20.90;99.90;;;;;;5020039;28;20422;-82
2023/09/19 09:17:20;;;;;;;0.70;0.70;;;20.90;99.90;;;;;;5021130;28;20449;-85
2023/09/19 09:19:48;;;;;;;1.40;1.40;;;20.70;99.90;;;;;;5003611;28;20483;-86
2023/09/19 09:22:18;;;;;;;0.60;0.60;;;20.90;99.90;;;;;;5015042;28;20424;-86
2023/09/19 09:24:54;;;;;;;0.60;0.60;;;20.90;99.90;;;;;;5019392;28;20810;-80
2023/09/19 09:27:23;;;;;;;0.80;0.80;;;21.10;99.90;;;;;;5001810;28;20434;-85
2023/09/19 09:29:54;;;;;;;0.70;0.70;;;21.10;99.90;;;;;;5020985;28;20661;-82
2023/09/19 09:32:24;;;;;;;0.60;0.60;;;21.30;99.90;;;;;;5025069;28;20453;-88
2023/09/19 09:34:52;;;;;;;1.37;1.37;;;21.60;99.90;;;;;;5024473;28;20428;-81
2023/09/19 09:37:26;;;;;;;0.70;0.70;;;21.80;99.90;;;;;;5022168;28;20416;-89
2023/09/19 09:39:58;;;;;;;0.70;0.70;;;21.80;99.90;;;;;;5003736;28;20437;-88
2023/09/19 09:42:38;;;;;;;0.60;0.60;;;21.80;99.90;;;;;;5006372;28;20406;-85
2023/09/19 09:45:37;;;;;;;30.67;1.87;;;22.00;99.90;;;;;;5017482;28;20470;-82
2023/09/19 09:48:15;;;;;;;0.80;0.80;;;22.00;99.90;;;;;;4995081;28;21092;-81
2023/09/19 09:50:55;;;;;;;0.70;0.70;;;22.20;99.90;;;;;;5024512;28;20447;-80
2023/09/19 09:53:26;;;;;;;0.70;0.70;;;22.10;99.90;;;;;;5006586;28;20434;-85
2023/09/19 09:56:13;;;;;;;0.73;0.73;;;22.10;99.90;;;;;;5006690;28;20695;-84
2023/09/19 09:58:59;;;;;;;0.70;0.70;;;22.20;99.90;;;;;;5024226;28;20424;-83
2023/09/19 10:01:31;;;;;;;0.70;0.70;;;22.30;99.90;;;;;;5003735;28;20615;-83
2023/09/19 10:04:00;;;;;;;0.60;0.60;;;22.20;99.90;;;;;;5021047;28;20644;-82
2023/09/19 10:06:47;;;;;;;0.60;0.60;;;22.30;99.90;;;;;;5024166;28;20455;-84
2023/09/19 10:09:17;;;;;;;1.00;1.00;;;22.20;99.90;;;;;;5024262;28;20446;-84
2023/09/19 10:11:47;;;;;;;1.93;1.83;;;22.30;99.90;;;;;;5008639;28;20611;-81
2023/09/19 10:14:23;;;;;;;1.10;1.10;;;22.50;99.90;;;;;;5024894;28;20430;-82
2023/09/19 10:17:00;;;;;;;0.70;0.70;;;22.80;99.90;;;;;;5017320;28;20406;-85
2023/09/19 10:19:37;;;;;;;0.70;0.70;;;22.90;99.90;;;;;;5017976;28;20431;-84
2023/09/19 10:22:09;;;;;;;0.70;0.70;;;23.10;99.90;;;;;;5014729;28;20750;-85
2023/09/19 10:24:44;;;;;;;0.70;0.70;;;22.70;99.90;;;;;;5009883;28;20524;-86
2023/09/19 10:27:37;;;;;;;0.70;0.70;;;22.60;99.90;;;;;;5026578;28;20409;-85
2023/09/19 10:30:08;;;;;;;1.43;1.33;;;22.20;99.90;;;;;;5025572;28;20483;-84
2023/09/19 10:32:39;;;;;;;0.70;0.70;;;21.90;99.90;;;;;;5009381;28;20443;-85
2023/09/19 10:35:12;;;;;;;0.60;0.60;;;21.30;99.90;;;;;;5023211;28;20546;-82
2023/09/19 10:37:44;;;;;;;0.70;0.70;;;21.40;99.90;;;;;;5028213;28;20462;-81
2023/09/19 10:40:15;;;;;;;1.10;1.00;;;21.50;99.90;;;;;;5028513;28;20486;-87
2023/09/19 10:42:45;;;;;;;0.60;0.60;;;21.50;99.90;;;;;;5020391;28;20547;-82
2023/09/19 10:45:15;;;;;;;0.60;0.60;;;22.00;99.90;;;;;;5026215;28;20459;-81
2023/09/19 10:47:43;;;;;;;0.60;0.60;;;22.50;99.90;;;;;;5020081;28;20432;-82
2023/09/19 10:50:21;;;;;;;0.60;0.60;;;23.00;99.90;;;;;;4989675;28;20673;-84
2023/09/19 10:52:58;;;;;;;0.70;0.70;;;23.10;99.90;;;;;;5026034;28;20407;-82
2023/09/19 10:55:27;;;;;;;9.70;1.63;;;23.10;99.90;;;;;;5025295;28;20421;-83
2023/09/19 10:58:00;;;;;;;0.90;0.90;;;22.90;99.90;;;;;;5009649;28;20417;-87
2023/09/19 11:00:49;;;;;;;1.60;1.50;;;22.60;99.90;;;;;;5014866;28;20410;-88
2023/09/19 11:03:23;;;;;;;0.73;0.73;;;23.00;99.90;;;;;;4997315;28;20650;-81
2023/09/19 11:06:23;;;;;;;0.70;0.70;;;23.10;99.90;;;;;;5008942;28;20448;-87
2023/09/19 11:09:26;;;;;;;0.73;0.73;;;23.20;99.90;;;;;;4979808;28;20450;-86
2023/09/19 11:11:57;;;;;;;0.70;0.70;;;23.30;99.90;;;;;;5026498;28;20491;-89
2023/09/19 11:14:29;;;;;;;0.70;0.70;;;23.00;99.90;;;;;;5024528;28;20418;-83
2023/09/19 11:17:11;;;;;;;1.50;1.40;;;22.60;99.90;;;;;;5024371;28;20406;-84
2023/09/19 11:22:58;;;;;;;0.83;0.83;;;22.40;99.90;;;;;;5016501;28;20434;-81
2023/09/19 11:25:39;;;;;;;0.70;0.70;;;22.50;99.90;;;;;;5030689;28;20463;-86
2023/09/19 11:28:13;;;;;;;0.70;0.70;;;22.80;99.90;;;;;;5000156;28;20424;-83
2023/09/19 11:30:46;;;;;;;1.00;0.97;;;23.00;99.90;;;;;;5009487;28;20440;-86
2023/09/19 11:33:46;;;;;;;0.80;0.80;;;23.30;99.90;;;;;;5010351;28;20434;-85
2023/09/19 11:36:36;;;;;;;0.90;0.90;;;23.30;99.90;;;;;;5016730;28;20397;-82
2023/09/19 11:39:26;;;;;;;0.70;0.70;;;23.40;99.90;;;;;;5012128;28;20509;-82
2023/09/19 11:41:56;;;;;;;3.20;1.17;;;23.00;99.90;;;;;;5015223;28;20439;-82
2023/09/19 11:44:28;;;;;;;0.70;0.70;;;23.00;99.90;;;;;;5024061;28;20474;-89
2023/09/19 11:47:06;;;;;;;0.80;0.80;;;22.80;99.90;;;;;;5009316;28;20474;-84
2023/09/19 11:49:34;;;;;;;0.70;0.70;;;22.70;99.90;;;;;;5010878;28;20460;-79
2023/09/19 11:52:08;;;;;;;0.70;0.70;;;22.50;99.90;;;;;;5009576;28;20401;-80
2023/09/19 11:54:42;;;;;;;0.70;0.70;;;22.50;99.90;;;;;;5023397;28;20414;-85
2023/09/19 11:57:12;;;;;;;0.80;0.80;;;22.70;99.90;;;;;;4992074;28;20425;-84
2023/09/19 11:59:47;;;;;;;0.70;0.70;;;22.90;99.90;;;;;;5018638;28;20418;-87
2023/09/19 12:02:36;;;;;;;0.70;0.70;;;23.10;99.90;;;;;;5005697;28;20421;-80
2023/09/19 12:05:05;;;;;;;0.67;0.67;;;23.00;99.90;;;;;;5021234;28;20465;-80
2023/09/19 12:07:47;;;;;;;0.90;0.90;;;23.40;99.90;;;;;;5025165;28;20420;-82
2023/09/19 12:10:17;;;;;;;0.70;0.70;;;23.60;99.90;;;;;;5020918;28;20438;-88
2023/09/19 12:12:53;;;;;;;1.17;1.10;;;23.80;99.90;;;;;;5006930;28;20414;-87
2023/09/19 12:15:28;;;;;;;0.70;0.70;;;24.00;99.90;;;;;;5007199;28;20421;-84
2023/09/19 12:17:55;;;;;;;0.70;0.70;;;24.20;99.90;;;;;;5020508;28;20486;-85
2023/09/19 12:20:23;;;;;;;0.90;0.90;;;24.20;99.90;;;;;;5021226;28;20742;-87
2023/09/19 12:22:50;;;;;;;0.63;0.63;;;24.30;99.90;;;;;;5022918;28;20472;-83
2023/09/19 12:25:18;;;;;;;0.70;0.70;;;24.40;99.90;;;;;;5019145;28;20484;-84
2023/09/19 12:27:47;;;;;;;0.93;0.93;;;24.20;99.90;;;;;;5019937;28;20426;-86
2023/09/19 12:30:18;;;;;;;0.70;0.70;;;23.90;99.90;;;;;;5022098;28;20628;-86
2023/09/19 12:32:58;;;;;;;0.80;0.80;;;24.00;99.90;;;;;;5010577;28;20435;-87
2023/09/19 12:35:34;;;;;;;0.80;0.80;;;24.00;99.90;;;;;;5016006;28;20439;-86
2023/09/19 12:38:03;;;;;;;0.67;0.67;;;24.00;99.70;;;;;;5024070;28;20421;-89
2023/09/19 12:40:37;;;;;;;0.90;0.90;;;24.00;98.60;;;;;;5022201;28;20459;-85
2023/09/19 12:43:07;;;;;;;1.17;1.17;;;23.90;99.00;;;;;;5024498;28;20451;-86
2023/09/19 12:45:37;;;;;;;0.70;0.70;;;23.90;98.70;;;;;;5024681;28;20708;-88
2023/09/19 12:48:32;;;;;;;;;;;;;;;;;;;;;
2023/09/19 12:51:09;;;;;;;0.73;0.73;;;23.70;98.70;;;;;;5018097;28;20578;-85
2023/09/19 12:53:46;;;;;;;1.53;1.27;;;23.80;98.10;;;;;;5022310;28;20450;-81
2023/09/19 12:56:17;;;;;;;0.70;0.70;;;23.80;97.90;;;;;;5019399;28;20442;-84
2023/09/19 12:58:58;;;;;;;0.70;0.70;;;23.80;97.30;;;;;;5005789;28;20413;-87
2023/09/19 13:01:27;;;;;;;0.70;0.70;;;23.70;97.60;;;;;;5013429;28;20481;-90
2023/09/19 13:04:19;;;;;;;0.80;0.80;;;23.50;97.80;;;;;;5004304;28;20421;-83
2023/09/19 13:06:49;;;;;;;0.80;0.80;;;23.60;97.30;;;;;;5002621;28;20830;-83
2023/09/19 13:09:20;;;;;;;0.70;0.70;;;23.50;96.70;;;;;;5003514;28;20414;-84
2023/09/19 13:11:50;;;;;;;0.70;0.70;;;23.40;97.20;;;;;;5017895;28;20539;-79
2023/09/19 13:14:28;;;;;;;0.70;0.70;;;23.40;97.60;;;;;;5021897;28;20522;-88
2023/09/19 13:17:23;;;;;;;1.10;1.07;;;23.40;97.60;;;;;;5005335;28;20541;-86
2023/09/19 13:19:59;;;;;;;0.70;0.70;;;23.40;98.20;;;;;;5022226;28;20820;-90
2023/09/19 13:22:53;;;;;;;1.90;1.40;;;23.40;98.10;;;;;;4998663;28;20460;-86
2023/09/19 13:25:29;;;;;;;0.70;0.70;;;23.50;97.80;;;;;;5024761;28;20509;-84
2023/09/19 13:28:13;;;;;;;3.60;0.90;;;23.50;97.60;;;;;;5018043;28;20489;-88
2023/09/19 13:30:50;;;;;;;1.00;1.00;;;23.50;97.80;;;;;;5010459;28;20430;-82
2023/09/19 13:33:21;;;;;;;0.70;0.70;;;23.50;97.90;;;;;;5005623;28;20473;-86
2023/09/19 13:35:52;;;;;;;0.70;0.70;;;23.50;97.00;;;;;;5004117;28;20449;-85
2023/09/19 13:38:31;;;;;;;0.70;0.70;;;23.40;97.60;;;;;;5022041;28;20421;-85
2023/09/19 13:41:10;;;;;;;0.70;0.70;;;23.40;98.00;;;;;;4998361;28;20434;-87
2023/09/19 13:43:38;;;;;;;0.70;0.70;;;23.30;97.90;;;;;;5022501;28;20458;-89
2023/09/19 13:46:15;;;;;;;0.80;0.80;;;23.10;98.20;;;;;;5023915;28;20532;-89
2023/09/19 13:48:42;;;;;;;0.80;0.80;;;23.10;98.60;;;;;;5001084;28;20426;-89
2023/09/19 13:51:12;;;;;;;0.90;0.90;;;23.20;98.70;;;;;;5003752;28;20435;-88
2023/09/19 13:53:39;;;;;;;0.70;0.70;;;23.20;98.80;;;;;;5009198;28;20435;-89
2023/09/19 13:56:09;;;;;;;0.70;0.70;;;23.00;98.90;;;;;;4998097;28;20424;-88
2023/09/19 13:58:36;;;;;;;0.70;0.70;;;23.20;99.00;;;;;;5004225;28;20441;-85
2023/09/19 14:01:12;;;;;;;1.43;1.33;;;23.20;99.00;;;;;;5021592;28;20443;-90
2023/09/19 14:03:40;;;;;;;0.70;0.70;;;23.10;98.00;;;;;;5005786;28;20418;-87
2023/09/19 14:06:07;;;;;;;0.67;0.67;;;23.10;98.50;;;;;;5021528;28;20460;-84
2023/09/19 14:08:38;;;;;;;0.77;0.77;;;23.20;98.10;;;;;;5018517;28;20596;-83
2023/09/19 14:11:07;;;;;;;0.60;0.60;;;23.10;98.30;;;;;;5011805;28;20409;-82
2023/09/19 14:13:35;;;;;;;0.70;0.70;;;23.10;97.50;;;;;;5173993;23;20475;-85
2023/09/19 14:16:08;;;;;;;0.80;0.80;;;22.90;97.80;;;;;;5060467;28;20525;-83
2023/09/19 14:18:35;;;;;;;0.83;0.83;;;22.80;97.90;;;;;;5061704;28;20449;-90
2023/09/19 14:21:04;;;;;;;0.60;0.60;;;22.90;98.20;;;;;;5053620;28;20814;-86
2023/09/19 14:23:43;;;;;;;0.70;0.70;;;22.90;98.40;;;;;;5062259;28;20508;-82
2023/09/19 14:26:12;;;;;;;0.60;0.60;;;22.90;97.90;;;;;;5066150;28;20455;-82
2023/09/19 14:28:44;;;;;;;0.60;0.60;;;22.80;98.30;;;;;;5376798;23;21536;-88
2023/09/19 14:31:14;;;;;;;0.60;0.60;;;22.70;98.50;;;;;;5020018;28;20421;-87
2023/09/19 14:33:44;;;;;;;1.27;1.27;;;22.70;98.80;;;;;;5009067;28;20532;-84
2023/09/19 14:36:13;;;;;;;0.60;0.60;;;22.90;98.90;;;;;;5017844;28;20418;-84
2023/09/19 14:38:54;;;;;;;0.60;0.60;;;22.70;98.60;;;;;;5009415;28;20403;-82
2023/09/19 14:41:28;;;;;;;0.60;0.60;;;22.70;98.30;;;;;;5186774;23;1469949;-85
2023/09/19 14:46:41;;;;;;;0.60;0.60;;;22.80;98.80;;;;;;5371897;22;20504;-89
2023/09/19 14:49:20;;;;;;;0.87;0.87;;;22.90;98.70;;;;;;5053736;28;20450;-84
2023/09/19 14:51:47;;;;;;;0.83;0.83;;;22.80;98.40;;;;;;5068081;28;20441;-87
2023/09/19 14:54:16;;;;;;;1.30;1.20;;;22.80;98.70;;;;;;5499218;23;20517;-87
2023/09/19 14:56:53;;;;;;;0.70;0.70;;;23.00;98.60;;;;;;5055640;28;20529;-86
2023/09/19 14:59:28;;;;;;;0.70;0.70;;;23.10;98.90;;;;;;5032288;28;20469;-88
2023/09/19 15:01:58;;;;;;;1.10;1.10;;;22.80;99.10;;;;;;5033233;28;20429;-88
2023/09/19 15:04:33;;;;;;;3.03;2.13;;;22.90;98.70;;;;;;5024971;28;20422;-87
2023/09/19 15:07:02;;;;;;;0.93;0.93;;;22.90;98.80;;;;;;5042884;28;20450;-85
2023/09/19 15:09:32;;;;;;;0.97;0.97;;;22.80;98.90;;;;;;5148736;23;20472;-88
2023/09/19 15:11:59;;;;;;;0.60;0.60;;;22.80;99.20;;;;;;5178799;23;20448;-84
2023/09/19 15:14:29;;;;;;;0.90;0.90;;;22.80;99.20;;;;;;5040271;28;20422;-89
2023/09/19 15:17:04;;;;;;;0.60;0.60;;;22.80;99.00;;;;;;5027373;28;20418;-88
2023/09/19 15:19:38;;;;;;;0.73;0.73;;;22.70;99.30;;;;;;5033625;28;20413;-89
2023/09/19 15:22:07;;;;;;;0.70;0.70;;;22.70;98.80;;;;;;5034347;28;20426;-89
2023/09/19 15:24:35;;;;;;;0.70;0.70;;;22.70;99.30;;;;;;5026555;28;20602;-90
2023/09/19 15:27:06;;;;;;;1.13;1.10;;;22.60;99.80;;;;;;5045846;28;20440;-86
2023/09/19 15:29:33;;;;;;;0.93;0.93;;;22.60;99.90;;;;;;5208052;23;20554;-85
2023/09/19 15:32:03;;;;;;;0.67;0.67;;;22.60;99.90;;;;;;5060508;28;20458;-88
2023/09/19 15:34:30;;;;;;;0.60;0.60;;;22.60;99.80;;;;;;5034927;28;20419;-86
2023/09/19 15:37:22;;;;;;;0.70;0.70;;;22.40;99.80;;;;;;5061919;28;20427;-87
2023/09/19 15:39:58;;;;;;;1.07;1.07;;;22.60;99.90;;;;;;5066363;28;20420;-90
2023/09/19 15:42:34;;;;;;;0.70;0.70;;;22.50;99.70;;;;;;5043848;28;20431;-89
2023/09/19 15:47:55;;;;;;;0.60;0.60;;;22.50;99.90;;;;;;5354915;23;20497;-86
2023/09/19 15:50:22;;;;;;;0.60;0.60;;;22.50;99.90;;;;;;5072595;28;20424;-87
2023/09/19 15:52:54;;;;;;;0.70;0.70;;;22.40;99.90;;;;;;5071191;28;20604;-88
2023/09/19 15:55:21;;;;;;;1.07;1.07;;;22.30;99.90;;;;;;5060108;28;20456;-86
2023/09/19 15:57:48;;;;;;;0.60;0.60;;;22.30;99.90;;;;;;5067560;28;20423;-90
2023/09/19 16:00:19;;;;;;;0.73;0.73;;;22.20;99.90;;;;;;5054068;28;20446;-91
2023/09/19 16:02:52;;;;;;;1.13;1.10;;;22.10;99.90;;;;;;5063579;28;20427;-92
2023/09/19 16:05:27;;;;;;;0.80;0.80;;;21.90;99.90;;;;;;5064406;28;20428;-88
2023/09/19 16:07:54;;;;;;;0.60;0.60;;;21.80;99.90;;;;;;5067062;28;20526;-89
2023/09/19 16:10:22;;;;;;;1.00;1.00;;;21.60;99.90;;;;;;5065471;28;20470;-90
2023/09/19 16:12:52;;;;;;;1.53;1.43;;;21.50;99.90;;;;;;5042033;28;20453;-90
2023/09/19 16:15:20;;;;;;;0.60;0.60;;;21.50;99.90;;;;;;5050111;28;20670;-88
2023/09/19 16:17:47;;;;;;;0.70;0.70;;;21.40;99.90;;;;;;5072888;28;20449;-87
2023/09/19 16:20:16;;;;;;;0.60;0.60;;;21.30;99.90;;;;;;5055204;28;20420;-89
2023/09/19 16:22:46;;;;;;;1.00;1.00;;;21.20;99.90;;;;;;5077810;28;20430;-87
2023/09/19 16:25:13;;;;;;;2.67;1.63;;;21.10;99.90;;;;;;5076473;28;20446;-87
2023/09/19 16:27:40;;;;;;;0.70;0.70;;;21.00;99.90;;;;;;5033111;28;20470;-89
2023/09/19 16:30:09;;;;;;;0.77;0.77;;;21.00;99.90;;;;;;5066474;28;20709;-88
2023/09/19 16:32:36;;;;;;;0.60;0.60;;;21.00;99.90;;;;;;5056801;28;20483;-86
2023/09/19 16:35:05;;;;;;;0.60;0.60;;;20.90;99.90;;;;;;5048979;28;20439;-85